sensor_id;sensor_type;location;lat;lon;timestamp;pressure;altitude;pressure_sealevel;temperature;humidity
60725;BME280;59881;36.722;-4.462;2023-04-01T00:00:03;101464.41;;;20.31;50.76
60725;BME280;59881;36.722;-4.462;2023-04-01T00:02:29;101471.88;;;20.27;50.70
60725;BME280;59881;36.722;-4.462;2023-04-01T00:04:54;101464.13;;;20.24;50.80
60725;BME280;59881;36.722;-4.462;2023-04-01T00:07:20;101465.28;;;20.21;50.92
60725;BME280;59881;36.722;-4.462;2023-04-01T00:09:45;101473.56;;;20.18;50.95
60725;BME280;59881;36.722;-4.462;2023-04-01T00:12:10;101473.31;;;20.12;51.00
60725;BME280;59881;36.722;-4.462;2023-04-01T00:14:36;101464.19;;;20.04;50.92
60725;BME280;59881;36.722;-4.462;2023-04-01T00:17:02;101469.53;;;20.04;51.37
60725;BME280;59881;36.722;-4.462;2023-04-01T00:19:27;101467.00;;;20.03;51.52
60725;BME280;59881;36.722;-4.462;2023-04-01T00:21:53;101473.50;;;20.00;51.53
60725;BME280;59881;36.722;-4.462;2023-04-01T00:24:18;101464.22;;;19.95;51.44
60725;BME280;59881;36.722;-4.462;2023-04-01T00:26:44;101462.66;;;19.92;51.41
60725;BME280;59881;36.722;-4.462;2023-04-01T00:29:09;101465.63;;;19.89;51.22
60725;BME280;59881;36.722;-4.462;2023-04-01T00:31:35;101461.69;;;19.83;51.11
60725;BME280;59881;36.722;-4.462;2023-04-01T00:34:00;101469.88;;;19.82;51.63
60725;BME280;59881;36.722;-4.462;2023-04-01T00:36:26;101466.50;;;19.80;51.72
60725;BME280;59881;36.722;-4.462;2023-04-01T00:38:51;101463.41;;;19.75;51.51
60725;BME280;59881;36.722;-4.462;2023-04-01T00:41:17;101456.81;;;19.69;51.77
60725;BME280;59881;36.722;-4.462;2023-04-01T00:43:47;101456.91;;;19.68;52.07
60725;BME280;59881;36.722;-4.462;2023-04-01T00:46:13;101462.03;;;19.71;52.37
60725;BME280;59881;36.722;-4.462;2023-04-01T00:48:39;101455.94;;;19.69;52.23
60725;BME280;59881;36.722;-4.462;2023-04-01T00:51:11;101457.75;;;19.68;52.34
60725;BME280;59881;36.722;-4.462;2023-04-01T00:53:40;101448.91;;;19.68;52.24
60725;BME280;59881;36.722;-4.462;2023-04-01T00:56:10;101452.69;;;19.65;52.48
60725;BME280;59881;36.722;-4.462;2023-04-01T00:58:38;101457.47;;;19.61;52.32
60725;BME280;59881;36.722;-4.462;2023-04-01T01:01:05;101452.44;;;19.58;52.35
60725;BME280;59881;36.722;-4.462;2023-04-01T01:03:31;101451.72;;;19.56;52.28
60725;BME280;59881;36.722;-4.462;2023-04-01T01:06:06;101442.31;;;19.52;52.25
60725;BME280;59881;36.722;-4.462;2023-04-01T01:08:39;101440.75;;;19.50;52.32
60725;BME280;59881;36.722;-4.462;2023-04-01T01:11:05;101439.94;;;19.49;52.73
60725;BME280;59881;36.722;-4.462;2023-04-01T01:13:43;101440.06;;;19.48;52.74
60725;BME280;59881;36.722;-4.462;2023-04-01T01:18:51;101434.31;;;19.42;53.07
60725;BME280;59881;36.722;-4.462;2023-04-01T01:29:01;101420.09;;;19.32;53.27
60725;BME280;59881;36.722;-4.462;2023-04-01T01:34:11;101419.25;;;19.32;53.18
60725;BME280;59881;36.722;-4.462;2023-04-01T01:36:40;101422.75;;;19.32;53.18
60725;BME280;59881;36.722;-4.462;2023-04-01T01:39:07;101420.09;;;19.32;53.24
60725;BME280;59881;36.722;-4.462;2023-04-01T01:41:35;101410.41;;;19.31;53.33
60725;BME280;59881;36.722;-4.462;2023-04-01T01:44:02;101407.03;;;19.29;52.96
60725;BME280;59881;36.722;-4.462;2023-04-01T01:46:29;101406.47;;;19.26;53.48
60725;BME280;59881;36.722;-4.462;2023-04-01T01:48:55;101406.63;;;19.24;53.46
60725;BME280;59881;36.722;-4.462;2023-04-01T01:51:22;101402.13;;;19.25;53.90
60725;BME280;59881;36.722;-4.462;2023-04-01T01:53:48;101405.06;;;19.21;53.71
60725;BME280;59881;36.722;-4.462;2023-04-01T01:56:14;101400.00;;;19.18;53.92
60725;BME280;59881;36.722;-4.462;2023-04-01T01:58:43;101407.19;;;19.18;54.09
60725;BME280;59881;36.722;-4.462;2023-04-01T02:01:12;101403.50;;;19.19;54.14
60725;BME280;59881;36.722;-4.462;2023-04-01T02:03:39;101401.00;;;19.17;54.16
60725;BME280;59881;36.722;-4.462;2023-04-01T02:06:10;101404.63;;;19.16;54.34
60725;BME280;59881;36.722;-4.462;2023-04-01T02:08:37;101405.06;;;19.12;54.13
60725;BME280;59881;36.722;-4.462;2023-04-01T02:11:09;101416.16;;;19.07;54.42
60725;BME280;59881;36.722;-4.462;2023-04-01T02:13:39;101414.47;;;19.06;54.41
60725;BME280;59881;36.722;-4.462;2023-04-01T02:16:08;101415.47;;;19.05;54.37
60725;BME280;59881;36.722;-4.462;2023-04-01T02:18:36;101418.13;;;19.05;54.64
60725;BME280;59881;36.722;-4.462;2023-04-01T02:21:03;101418.25;;;19.03;54.70
60725;BME280;59881;36.722;-4.462;2023-04-01T02:23:30;101425.72;;;19.00;54.77
60725;BME280;59881;36.722;-4.462;2023-04-01T02:25:58;101408.28;;;18.96;54.72
60725;BME280;59881;36.722;-4.462;2023-04-01T02:28:23;101415.03;;;18.90;54.69
60725;BME280;59881;36.722;-4.462;2023-04-01T02:30:49;101412.78;;;18.86;55.17
60725;BME280;59881;36.722;-4.462;2023-04-01T02:33:15;101414.72;;;18.84;55.44
60725;BME280;59881;36.722;-4.462;2023-04-01T02:35:41;101417.69;;;18.80;55.22
60725;BME280;59881;36.722;-4.462;2023-04-01T02:38:07;101405.56;;;18.76;55.45
60725;BME280;59881;36.722;-4.462;2023-04-01T02:40:42;101403.72;;;18.77;55.50
60725;BME280;59881;36.722;-4.462;2023-04-01T02:43:08;101401.47;;;18.72;55.68
60725;BME280;59881;36.722;-4.462;2023-04-01T02:45:33;101404.56;;;18.68;55.54
60725;BME280;59881;36.722;-4.462;2023-04-01T02:47:59;101396.97;;;18.63;55.52
60725;BME280;59881;36.722;-4.462;2023-04-01T02:50:24;101397.09;;;18.61;55.91
60725;BME280;59881;36.722;-4.462;2023-04-01T02:52:50;101403.31;;;18.62;56.14
60725;BME280;59881;36.722;-4.462;2023-04-01T02:55:15;101390.94;;;18.61;56.29
60725;BME280;59881;36.722;-4.462;2023-04-01T02:57:40;101397.09;;;18.61;56.38
60725;BME280;59881;36.722;-4.462;2023-04-01T03:00:06;101390.22;;;18.59;56.22
60725;BME280;59881;36.722;-4.462;2023-04-01T03:02:36;101387.13;;;18.54;56.27
60725;BME280;59881;36.722;-4.462;2023-04-01T03:05:01;101398.34;;;18.48;56.41
60725;BME280;59881;36.722;-4.462;2023-04-01T03:07:27;101388.91;;;18.44;56.57
60725;BME280;59881;36.722;-4.462;2023-04-01T03:09:52;101388.50;;;18.38;56.69
60725;BME280;59881;36.722;-4.462;2023-04-01T03:12:17;101395.78;;;18.36;56.98
60725;BME280;59881;36.722;-4.462;2023-04-01T03:14:43;101399.69;;;18.32;56.71
60725;BME280;59881;36.722;-4.462;2023-04-01T03:17:08;101387.19;;;18.33;57.22
60725;BME280;59881;36.722;-4.462;2023-04-01T03:19:33;101390.03;;;18.31;57.32
60725;BME280;59881;36.722;-4.462;2023-04-01T03:21:59;101386.63;;;18.29;57.29
60725;BME280;59881;36.722;-4.462;2023-04-01T03:24:24;101389.72;;;18.25;57.22
60725;BME280;59881;36.722;-4.462;2023-04-01T03:26:50;101385.63;;;18.20;57.37
60725;BME280;59881;36.722;-4.462;2023-04-01T03:29:15;101398.13;;;18.20;57.66
60725;BME280;59881;36.722;-4.462;2023-04-01T03:31:41;101388.41;;;18.19;57.66
60725;BME280;59881;36.722;-4.462;2023-04-01T03:34:06;101387.00;;;18.15;57.70
60725;BME280;59881;36.722;-4.462;2023-04-01T03:36:32;101389.09;;;18.11;57.95
60725;BME280;59881;36.722;-4.462;2023-04-01T03:38:57;101388.25;;;18.11;57.89
60725;BME280;59881;36.722;-4.462;2023-04-01T03:41:22;101393.56;;;18.11;58.06
60725;BME280;59881;36.722;-4.462;2023-04-01T03:43:48;101392.88;;;18.09;58.16
60725;BME280;59881;36.722;-4.462;2023-04-01T03:46:17;101385.72;;;18.09;58.14
60725;BME280;59881;36.722;-4.462;2023-04-01T03:48:42;101386.97;;;18.05;57.99
60725;BME280;59881;36.722;-4.462;2023-04-01T03:51:07;101394.25;;;18.03;58.14
60725;BME280;59881;36.722;-4.462;2023-04-01T03:53:33;101384.72;;;18.01;58.08
60725;BME280;59881;36.722;-4.462;2023-04-01T03:55:58;101383.00;;;17.99;58.25
60725;BME280;59881;36.722;-4.462;2023-04-01T03:58:28;101384.00;;;17.98;58.17
60725;BME280;59881;36.722;-4.462;2023-04-01T04:00:53;101386.78;;;17.97;58.30
60725;BME280;59881;36.722;-4.462;2023-04-01T04:03:18;101375.41;;;17.95;58.20
60725;BME280;59881;36.722;-4.462;2023-04-01T04:05:48;101369.38;;;17.93;58.38
60725;BME280;59881;36.722;-4.462;2023-04-01T04:08:14;101370.34;;;17.92;58.45
60725;BME280;59881;36.722;-4.462;2023-04-01T04:10:40;101372.31;;;17.90;58.52
60725;BME280;59881;36.722;-4.462;2023-04-01T04:13:06;101362.75;;;17.87;58.52
60725;BME280;59881;36.722;-4.462;2023-04-01T04:15:32;101367.38;;;17.85;58.44
60725;BME280;59881;36.722;-4.462;2023-04-01T04:17:58;101364.00;;;17.83;58.51
60725;BME280;59881;36.722;-4.462;2023-04-01T04:20:23;101355.25;;;17.81;58.66
60725;BME280;59881;36.722;-4.462;2023-04-01T04:22:48;101360.88;;;17.78;58.70
60725;BME280;59881;36.722;-4.462;2023-04-01T04:25:14;101357.72;;;17.73;58.72
60725;BME280;59881;36.722;-4.462;2023-04-01T04:27:39;101361.78;;;17.67;58.79
60725;BME280;59881;36.722;-4.462;2023-04-01T04:30:05;101358.53;;;17.64;58.79
60725;BME280;59881;36.722;-4.462;2023-04-01T04:32:31;101359.63;;;17.61;58.85
60725;BME280;59881;36.722;-4.462;2023-04-01T04:34:56;101361.72;;;17.57;58.53
60725;BME280;59881;36.722;-4.462;2023-04-01T04:37:22;101364.78;;;17.53;58.53
60725;BME280;59881;36.722;-4.462;2023-04-01T04:39:47;101353.56;;;17.49;58.57
60725;BME280;59881;36.722;-4.462;2023-04-01T04:42:12;101367.13;;;17.46;58.71
60725;BME280;59881;36.722;-4.462;2023-04-01T04:44:38;101376.34;;;17.42;58.75
60725;BME280;59881;36.722;-4.462;2023-04-01T04:47:04;101380.25;;;17.38;58.49
60725;BME280;59881;36.722;-4.462;2023-04-01T04:49:29;101381.47;;;17.34;58.69
60725;BME280;59881;36.722;-4.462;2023-04-01T04:51:55;101382.72;;;17.30;58.64
60725;BME280;59881;36.722;-4.462;2023-04-01T04:54:20;101390.94;;;17.27;58.62
60725;BME280;59881;36.722;-4.462;2023-04-01T04:56:45;101390.38;;;17.23;58.50
60725;BME280;59881;36.722;-4.462;2023-04-01T04:59:11;101395.25;;;17.18;58.41
60725;BME280;59881;36.722;-4.462;2023-04-01T05:01:37;101400.69;;;17.16;58.37
60725;BME280;59881;36.722;-4.462;2023-04-01T05:04:03;101394.53;;;17.16;58.34
60725;BME280;59881;36.722;-4.462;2023-04-01T05:06:28;101399.97;;;17.14;58.15
60725;BME280;59881;36.722;-4.462;2023-04-01T05:08:54;101399.25;;;17.12;58.03
60725;BME280;59881;36.722;-4.462;2023-04-01T05:11:20;101400.22;;;17.11;57.87
60725;BME280;59881;36.722;-4.462;2023-04-01T05:13:46;101414.78;;;17.07;57.58
60725;BME280;59881;36.722;-4.462;2023-04-01T05:16:12;101421.31;;;17.03;57.48
60725;BME280;59881;36.722;-4.462;2023-04-01T05:18:38;101425.19;;;16.99;57.55
60725;BME280;59881;36.722;-4.462;2023-04-01T05:21:04;101417.59;;;16.94;57.61
60725;BME280;59881;36.722;-4.462;2023-04-01T05:23:30;101421.69;;;16.99;57.65
60725;BME280;59881;36.722;-4.462;2023-04-01T05:25:56;101426.19;;;16.98;57.54
60725;BME280;59881;36.722;-4.462;2023-04-01T05:28:22;101426.41;;;16.95;57.49
60725;BME280;59881;36.722;-4.462;2023-04-01T05:30:47;101428.50;;;16.91;57.38
60725;BME280;59881;36.722;-4.462;2023-04-01T05:33:12;101435.75;;;16.89;57.66
60725;BME280;59881;36.722;-4.462;2023-04-01T05:35:38;101442.16;;;16.87;57.83
60725;BME280;59881;36.722;-4.462;2023-04-01T05:38:04;101440.47;;;16.86;57.66
60725;BME280;59881;36.722;-4.462;2023-04-01T05:40:29;101442.53;;;16.82;57.57
60725;BME280;59881;36.722;-4.462;2023-04-01T05:42:55;101441.03;;;16.78;57.71
60725;BME280;59881;36.722;-4.462;2023-04-01T05:45:21;101451.94;;;16.75;57.57
60725;BME280;59881;36.722;-4.462;2023-04-01T05:47:46;101444.06;;;16.73;57.74
60725;BME280;59881;36.722;-4.462;2023-04-01T05:50:11;101446.75;;;16.73;57.59
60725;BME280;59881;36.722;-4.462;2023-04-01T05:52:37;101442.41;;;16.72;57.33
60725;BME280;59881;36.722;-4.462;2023-04-01T05:55:03;101448.69;;;16.71;57.29
60725;BME280;59881;36.722;-4.462;2023-04-01T05:57:28;101441.69;;;16.70;57.29
60725;BME280;59881;36.722;-4.462;2023-04-01T05:59:54;101450.75;;;16.68;57.15
60725;BME280;59881;36.722;-4.462;2023-04-01T06:02:19;101444.59;;;16.67;56.94
60725;BME280;59881;36.722;-4.462;2023-04-01T06:04:45;101447.25;;;16.67;56.92
60725;BME280;59881;36.722;-4.462;2023-04-01T06:07:11;101450.66;;;16.69;56.80
60725;BME280;59881;36.722;-4.462;2023-04-01T06:09:37;101437.19;;;16.71;56.59
60725;BME280;59881;36.722;-4.462;2023-04-01T06:14:52;101441.69;;;16.82;56.08
60725;BME280;59881;36.722;-4.462;2023-04-01T06:23:19;101443.28;;;17.16;54.79
60725;BME280;59881;36.722;-4.462;2023-04-01T06:32:48;101424.97;;;20.23;47.80
60725;BME280;59881;36.722;-4.462;2023-04-01T06:45:58;101419.06;;;23.26;39.97
60725;BME280;59881;36.722;-4.462;2023-04-01T06:50:39;101441.47;;;24.71;37.30
60725;BME280;59881;36.722;-4.462;2023-04-01T06:55:53;101442.22;;;25.72;34.97
60725;BME280;59881;36.722;-4.462;2023-04-01T06:58:21;101445.38;;;26.29;33.59
60725;BME280;59881;36.722;-4.462;2023-04-01T07:00:48;101450.47;;;26.68;32.69
60725;BME280;59881;36.722;-4.462;2023-04-01T07:03:36;101451.34;;;27.12;32.04
60725;BME280;59881;36.722;-4.462;2023-04-01T07:06:06;101452.28;;;27.69;30.76
60725;BME280;59881;36.722;-4.462;2023-04-01T07:08:35;101456.94;;;27.75;30.12
60725;BME280;59881;36.722;-4.462;2023-04-01T07:11:02;101453.75;;;27.93;29.66
60725;BME280;59881;36.722;-4.462;2023-04-01T07:13:45;101462.94;;;27.98;29.13
60725;BME280;59881;36.722;-4.462;2023-04-01T07:18:43;101470.03;;;28.89;27.77
60725;BME280;59881;36.722;-4.462;2023-04-01T07:21:15;101474.75;;;29.62;26.50
60725;BME280;59881;36.722;-4.462;2023-04-01T07:23:44;101477.63;;;30.27;25.93
60725;BME280;59881;36.722;-4.462;2023-04-01T07:26:16;101470.72;;;30.89;25.03
60725;BME280;59881;36.722;-4.462;2023-04-01T07:28:42;101475.31;;;31.52;23.86
60725;BME280;59881;36.722;-4.462;2023-04-01T07:31:11;101479.72;;;31.97;22.98
60725;BME280;59881;36.722;-4.462;2023-04-01T07:36:21;101487.63;;;32.61;21.78
60725;BME280;59881;36.722;-4.462;2023-04-01T07:44:42;101490.38;;;33.75;20.07
60725;BME280;59881;36.722;-4.462;2023-04-01T07:49:22;101494.28;;;34.78;19.15
60725;BME280;59881;36.722;-4.462;2023-04-01T07:52:02;101486.91;;;34.96;18.70
60725;BME280;59881;36.722;-4.462;2023-04-01T07:57:15;101496.72;;;35.20;17.00
60725;BME280;59881;36.722;-4.462;2023-04-01T07:59:45;101498.03;;;35.85;15.91
60725;BME280;59881;36.722;-4.462;2023-04-01T08:17:54;101494.88;;;34.05;15.86
60725;BME280;59881;36.722;-4.462;2023-04-01T08:20:26;101490.63;;;33.19;16.52
60725;BME280;59881;36.722;-4.462;2023-04-01T08:22:57;101495.25;;;33.85;16.19
60725;BME280;59881;36.722;-4.462;2023-04-01T08:25:25;101487.53;;;34.17;15.58
60725;BME280;59881;36.722;-4.462;2023-04-01T08:30:49;101487.22;;;38.23;12.95
60725;BME280;59881;36.722;-4.462;2023-04-01T08:35:46;101483.91;;;39.25;12.05
60725;BME280;59881;36.722;-4.462;2023-04-01T08:38:18;101489.28;;;40.28;11.72
60725;BME280;59881;36.722;-4.462;2023-04-01T08:40:53;101496.19;;;40.80;11.31
60725;BME280;59881;36.722;-4.462;2023-04-01T08:45:53;101495.84;;;40.92;10.94
60725;BME280;59881;36.722;-4.462;2023-04-01T08:53:43;101490.94;;;43.25;9.83
60725;BME280;59881;36.722;-4.462;2023-04-01T08:59:12;101502.38;;;44.11;9.04
60725;BME280;59881;36.722;-4.462;2023-04-01T09:02:16;101501.72;;;43.73;9.17
60725;BME280;59881;36.722;-4.462;2023-04-01T09:07:04;101504.63;;;44.23;9.17
60725;BME280;59881;36.722;-4.462;2023-04-01T09:19:20;101506.38;;;43.91;9.34
60725;BME280;59881;36.722;-4.462;2023-04-01T09:22:06;101503.25;;;44.48;9.10
60725;BME280;59881;36.722;-4.462;2023-04-01T09:37:34;101515.72;;;47.04;7.41
60725;BME280;59881;36.722;-4.462;2023-04-01T09:42:41;101499.53;;;47.54;7.45
60725;BME280;59881;36.722;-4.462;2023-04-01T10:19:54;101540.63;;;47.27;7.79
60725;BME280;59881;36.722;-4.462;2023-04-01T10:30:02;101533.53;;;48.75;6.78
60725;BME280;59881;36.722;-4.462;2023-04-01T10:32:35;101528.44;;;48.77;6.74
60725;BME280;59881;36.722;-4.462;2023-04-01T10:43:09;101509.66;;;50.30;5.85
60725;BME280;59881;36.722;-4.462;2023-04-01T10:45:43;101500.63;;;49.14;6.62
60725;BME280;59881;36.722;-4.462;2023-04-01T10:48:14;101508.59;;;47.89;7.02
60725;BME280;59881;36.722;-4.462;2023-04-01T11:01:11;101513.94;;;31.43;16.89
60725;BME280;59881;36.722;-4.462;2023-04-01T11:14:30;101520.03;;;29.15;19.76
60725;BME280;59881;36.722;-4.462;2023-04-01T11:22:32;101503.16;;;28.71;19.82
60725;BME280;59881;36.722;-4.462;2023-04-01T11:33:19;101489.56;;;28.23;19.57
60725;BME280;59881;36.722;-4.462;2023-04-01T11:40:47;101462.25;;;28.24;19.59
60725;BME280;59881;36.722;-4.462;2023-04-01T12:06:53;101418.41;;;27.23;20.82
60725;BME280;59881;36.722;-4.462;2023-04-01T12:09:25;101414.19;;;27.20;20.78
60725;BME280;59881;36.722;-4.462;2023-04-01T12:14:32;101415.06;;;27.21;21.07
60725;BME280;59881;36.722;-4.462;2023-04-01T12:19:51;101414.78;;;27.16;21.12
60725;BME280;59881;36.722;-4.462;2023-04-01T12:22:30;101404.88;;;27.23;21.15
60725;BME280;59881;36.722;-4.462;2023-04-01T12:25:14;101393.28;;;27.29;20.98
60725;BME280;59881;36.722;-4.462;2023-04-01T12:30:23;101401.31;;;27.72;20.93
60725;BME280;59881;36.722;-4.462;2023-04-01T12:35:23;101404.16;;;27.64;21.59
60725;BME280;59881;36.722;-4.462;2023-04-01T12:37:54;101396.50;;;27.68;21.58
60725;BME280;59881;36.722;-4.462;2023-04-01T12:40:30;101385.28;;;27.71;21.31
60725;BME280;59881;36.722;-4.462;2023-04-01T12:45:30;101393.47;;;27.56;21.78
60725;BME280;59881;36.722;-4.462;2023-04-01T12:55:43;101368.22;;;27.20;22.19
60725;BME280;59881;36.722;-4.462;2023-04-01T13:16:27;101353.56;;;27.08;22.98
60725;BME280;59881;36.722;-4.462;2023-04-01T13:19:03;101353.81;;;27.13;23.22
60725;BME280;59881;36.722;-4.462;2023-04-01T13:24:29;101357.03;;;26.80;23.42
60725;BME280;59881;36.722;-4.462;2023-04-01T13:29:37;101352.16;;;26.54;24.14
60725;BME280;59881;36.722;-4.462;2023-04-01T13:34:38;101337.16;;;26.30;24.79
60725;BME280;59881;36.722;-4.462;2023-04-01T13:45:01;101323.66;;;26.67;24.71
60725;BME280;59881;36.722;-4.462;2023-04-01T13:52:36;101298.88;;;26.63;25.16
60725;BME280;59881;36.722;-4.462;2023-04-01T13:57:56;101297.38;;;26.60;24.80
60725;BME280;59881;36.722;-4.462;2023-04-01T14:10:40;101286.00;;;26.43;25.63
60725;BME280;59881;36.722;-4.462;2023-04-01T14:15:40;101285.84;;;26.30;25.75
60725;BME280;59881;36.722;-4.462;2023-04-01T14:28:20;101267.06;;;26.22;26.56
60725;BME280;59881;36.722;-4.462;2023-04-01T14:38:36;101248.16;;;26.22;26.77
60725;BME280;59881;36.722;-4.462;2023-04-01T14:49:24;101244.16;;;26.18;26.52
60725;BME280;59881;36.722;-4.462;2023-04-01T14:51:55;101235.59;;;26.14;26.32
60725;BME280;59881;36.722;-4.462;2023-04-01T14:54:32;101218.31;;;26.09;26.31
60725;BME280;59881;36.722;-4.462;2023-04-01T14:57:11;101229.88;;;26.02;26.41
60725;BME280;59881;36.722;-4.462;2023-04-01T14:59:40;101227.56;;;25.99;26.66
60725;BME280;59881;36.722;-4.462;2023-04-01T15:02:27;101214.44;;;25.96;26.77
60725;BME280;59881;36.722;-4.462;2023-04-01T15:05:01;101222.81;;;26.01;27.04
60725;BME280;59881;36.722;-4.462;2023-04-01T15:12:45;101209.31;;;25.87;27.21
60725;BME280;59881;36.722;-4.462;2023-04-01T15:18:04;101204.59;;;25.89;27.41
60725;BME280;59881;36.722;-4.462;2023-04-01T15:21:15;101196.75;;;25.94;27.48
60725;BME280;59881;36.722;-4.462;2023-04-01T15:39:10;101173.50;;;25.93;26.21
60725;BME280;59881;36.722;-4.462;2023-04-01T15:42:01;101173.50;;;25.93;26.47
60725;BME280;59881;36.722;-4.462;2023-04-01T15:49:54;101151.81;;;25.86;26.40
60725;BME280;59881;36.722;-4.462;2023-04-01T15:52:24;101142.03;;;25.85;26.85
60725;BME280;59881;36.722;-4.462;2023-04-01T15:55:04;101151.16;;;25.84;27.04
60725;BME280;59881;36.722;-4.462;2023-04-01T16:00:09;101153.22;;;25.82;26.90
60725;BME280;59881;36.722;-4.462;2023-04-01T16:15:33;101153.88;;;25.84;26.90
60725;BME280;59881;36.722;-4.462;2023-04-01T16:20:51;101139.84;;;25.74;27.45
60725;BME280;59881;36.722;-4.462;2023-04-01T16:23:26;101145.81;;;25.69;27.58
60725;BME280;59881;36.722;-4.462;2023-04-01T16:26:01;101143.69;;;25.65;27.40
60725;BME280;59881;36.722;-4.462;2023-04-01T16:28:42;101146.13;;;25.59;27.49
60725;BME280;59881;36.722;-4.462;2023-04-01T16:33:55;101151.88;;;25.56;28.01
60725;BME280;59881;36.722;-4.462;2023-04-01T16:36:44;101140.00;;;25.51;28.12
60725;BME280;59881;36.722;-4.462;2023-04-01T16:41:36;101141.31;;;25.40;28.64
60725;BME280;59881;36.722;-4.462;2023-04-01T16:44:23;101140.03;;;25.36;28.64
60725;BME280;59881;36.722;-4.462;2023-04-01T16:54:39;101139.28;;;25.27;29.05
60725;BME280;59881;36.722;-4.462;2023-04-01T16:59:43;101149.16;;;25.20;29.63
60725;BME280;59881;36.722;-4.462;2023-04-01T17:02:12;101157.56;;;25.17;29.76
60725;BME280;59881;36.722;-4.462;2023-04-01T17:04:48;101161.47;;;25.14;29.91
60725;BME280;59881;36.722;-4.462;2023-04-01T17:10:38;101159.53;;;25.08;30.18
60725;BME280;59881;36.722;-4.462;2023-04-01T17:12:39;101161.94;;;25.03;30.12
60725;BME280;59881;36.722;-4.462;2023-04-01T17:17:45;101155.47;;;24.97;30.60
60725;BME280;59881;36.722;-4.462;2023-04-01T17:22:53;101160.38;;;24.94;30.74
60725;BME280;59881;36.722;-4.462;2023-04-01T17:25:25;101153.28;;;24.93;30.90
60725;BME280;59881;36.722;-4.462;2023-04-01T17:33:15;101140.59;;;24.87;31.24
60725;BME280;59881;36.722;-4.462;2023-04-01T17:45:57;101152.91;;;24.66;31.91
60725;BME280;59881;36.722;-4.462;2023-04-01T17:48:49;101148.91;;;24.62;31.92
60725;BME280;59881;36.722;-4.462;2023-04-01T17:56:45;101155.78;;;24.42;32.31
60725;BME280;59881;36.722;-4.462;2023-04-01T18:02:18;101153.06;;;24.27;33.08
60725;BME280;59881;36.722;-4.462;2023-04-01T18:22:08;101166.66;;;23.48;34.04
60725;BME280;59881;36.722;-4.462;2023-04-01T18:25:11;101168.03;;;23.35;34.51
60725;BME280;59881;36.722;-4.462;2023-04-01T18:30:11;101172.16;;;23.15;34.93
60725;BME280;59881;36.722;-4.462;2023-04-01T18:32:51;101176.53;;;23.08;34.94
60725;BME280;59881;36.722;-4.462;2023-04-01T18:40:34;101171.19;;;22.91;35.06
60725;BME280;59881;36.722;-4.462;2023-04-01T18:45:36;101177.91;;;22.79;35.18
60725;BME280;59881;36.722;-4.462;2023-04-01T18:48:17;101170.06;;;22.69;35.10
60725;BME280;59881;36.722;-4.462;2023-04-01T18:53:24;101162.16;;;22.51;35.37
60725;BME280;59881;36.722;-4.462;2023-04-01T18:56:06;101165.69;;;22.44;35.49
60725;BME280;59881;36.722;-4.462;2023-04-01T18:58:35;101163.53;;;22.39;35.46
60725;BME280;59881;36.722;-4.462;2023-04-01T19:01:04;101156.81;;;22.35;35.93
60725;BME280;59881;36.722;-4.462;2023-04-01T19:06:02;101164.19;;;22.41;35.84
60725;BME280;59881;36.722;-4.462;2023-04-01T19:08:34;101162.84;;;22.37;35.90
60725;BME280;59881;36.722;-4.462;2023-04-01T19:11:13;101168.06;;;22.30;35.96
60725;BME280;59881;36.722;-4.462;2023-04-01T19:21:22;101169.50;;;22.00;36.56
60725;BME280;59881;36.722;-4.462;2023-04-01T19:42:00;101181.53;;;21.80;37.50
60725;BME280;59881;36.722;-4.462;2023-04-01T19:44:31;101188.75;;;21.79;37.47
60725;BME280;59881;36.722;-4.462;2023-04-01T19:50:27;101192.25;;;21.80;37.65
60725;BME280;59881;36.722;-4.462;2023-04-01T19:52:26;101207.34;;;21.81;37.77
60725;BME280;59881;36.722;-4.462;2023-04-01T19:57:48;101210.19;;;21.79;37.84
60725;BME280;59881;36.722;-4.462;2023-04-01T20:00:22;101217.72;;;21.76;38.06
60725;BME280;59881;36.722;-4.462;2023-04-01T20:07:54;101237.59;;;21.65;38.97
60725;BME280;59881;36.722;-4.462;2023-04-01T20:15:34;101246.13;;;21.52;39.49
60725;BME280;59881;36.722;-4.462;2023-04-01T20:18:02;101257.81;;;21.51;39.72
60725;BME280;59881;36.722;-4.462;2023-04-01T20:20:28;101259.47;;;21.44;39.69
60725;BME280;59881;36.722;-4.462;2023-04-01T20:23:01;101259.38;;;21.36;39.83
60725;BME280;59881;36.722;-4.462;2023-04-01T20:25:33;101258.50;;;21.27;40.12
60725;BME280;59881;36.722;-4.462;2023-04-01T20:30:46;101262.81;;;21.20;40.59
60725;BME280;59881;36.722;-4.462;2023-04-01T20:41:05;101270.63;;;21.13;40.91
60725;BME280;59881;36.722;-4.462;2023-04-01T21:04:22;101279.56;;;20.78;41.98
60725;BME280;59881;36.722;-4.462;2023-04-01T22:04:18;101290.72;;;20.37;44.62
60725;BME280;59881;36.722;-4.462;2023-04-01T22:06:56;101292.53;;;20.37;44.90
60725;BME280;59881;36.722;-4.462;2023-04-01T22:09:32;101296.34;;;20.34;44.81
60725;BME280;59881;36.722;-4.462;2023-04-01T22:12:15;101286.66;;;20.33;45.24
60725;BME280;59881;36.722;-4.462;2023-04-01T22:25:10;101293.75;;;20.24;45.96
60725;BME280;59881;36.722;-4.462;2023-04-01T22:32:50;101297.84;;;20.19;46.36
60725;BME280;59881;36.722;-4.462;2023-04-01T22:40:38;101290.91;;;20.08;46.90
60725;BME280;59881;36.722;-4.462;2023-04-01T22:43:13;101279.97;;;20.01;46.59
60725;BME280;59881;36.722;-4.462;2023-04-01T22:51:07;101288.84;;;19.92;47.16
60725;BME280;59881;36.722;-4.462;2023-04-01T22:56:05;101275.53;;;19.82;47.61
60725;BME280;59881;36.722;-4.462;2023-04-01T22:59:17;101283.72;;;19.81;47.59
60725;BME280;59881;36.722;-4.462;2023-04-01T23:01:23;101292.03;;;19.78;47.67
60725;BME280;59881;36.722;-4.462;2023-04-01T23:03:51;101285.59;;;19.71;47.65
60725;BME280;59881;36.722;-4.462;2023-04-01T23:06:18;101298.25;;;19.69;48.04
60725;BME280;59881;36.722;-4.462;2023-04-01T23:11:23;101292.34;;;19.65;48.20
60725;BME280;59881;36.722;-4.462;2023-04-01T23:16:36;101284.50;;;19.54;48.61
60725;BME280;59881;36.722;-4.462;2023-04-01T23:21:35;101279.19;;;19.44;48.67